Time;durP1;ratioP1;P1;durP2;ratioP2;P2;SDS_P1;SDS_P2;PMS_P1;PMS_P2;Temp;Humidity;BMP_temperature;BMP_pressure;BME280_temperature;BME280_humidity;BME280_pressure;Samples;Min_cycle;Max_cycle;Signal;HPM_P1;HPM_P2
2022/12/31 00:01:30;;;;;;;59.45;30.90;;;;;;;;;;6274571;28;20048;-76
2022/12/31 00:04:32;;;;;;;55.75;31.17;;;;;;;;;;6278934;28;20053;-76
2022/12/31 00:07:34;;;;;;;57.28;31.05;;;;;;;;;;6249398;28;20053;-76
2022/12/31 00:10:40;;;;;;;56.03;31.10;;;;;;;;;;6247527;28;20057;-75
2022/12/31 00:13:45;;;;;;;60.03;31.73;;;;;;;;;;6245307;28;20064;-76
2022/12/31 00:16:47;;;;;;;59.45;31.30;;;;;;;;;;6249648;28;20049;-76
2022/12/31 00:19:48;;;;;;;57.65;30.83;;;;;;;;;;6247697;28;20095;-75
2022/12/31 00:22:50;;;;;;;54.58;30.73;;;;;;;;;;6251739;28;20046;-74
2022/12/31 00:25:51;;;;;;;54.33;31.52;;;;;;;;;;6244038;28;20053;-74
2022/12/31 00:28:56;;;;;;;58.35;30.63;;;;;;;;;;6250483;28;20049;-76
2022/12/31 00:31:57;;;;;;;51.85;29.35;;;;;;;;;;6250803;28;20049;-76
2022/12/31 00:34:59;;;;;;;52.63;30.70;;;;;;;;;;6252290;28;20219;-76
2022/12/31 00:38:00;;;;;;;55.65;29.60;;;;;;;;;;6248932;28;20364;-76
2022/12/31 00:41:02;;;;;;;55.28;29.38;;;;;;;;;;6247016;28;20052;-76
2022/12/31 00:44:05;;;;;;;52.30;30.85;;;;;;;;;;6245578;28;20045;-76
2022/12/31 00:47:07;;;;;;;53.35;29.33;;;;;;;;;;6251553;28;20087;-76
2022/12/31 00:50:09;;;;;;;52.30;30.67;;;;;;;;;;6248109;28;20049;-73
2022/12/31 00:53:11;;;;;;;49.53;28.88;;;;;;;;;;6250987;28;20096;-74
2022/12/31 00:56:14;;;;;;;49.92;29.38;;;;;;;;;;6250825;28;20057;-77
2022/12/31 00:59:17;;;;;;;48.83;27.98;;;;;;;;;;6253987;28;20045;-75
2022/12/31 01:02:19;;;;;;;51.03;29.00;;;;;;;;;;6269028;28;20045;-74
2022/12/31 01:05:20;;;;;;;54.97;30.00;;;;;;;;;;6279139;28;20049;-76
2022/12/31 01:08:22;;;;;;;49.60;28.67;;;;;;;;;;6275350;28;20056;-74
2022/12/31 01:11:28;;;;;;;57.65;31.70;;;;;;;;;;6281694;28;20324;-72
2022/12/31 01:14:31;;;;;;;53.90;29.05;;;;;;;;;;6279464;28;20057;-76
2022/12/31 01:17:34;;;;;;;53.42;28.83;;;;;;;;;;6281192;28;20083;-74
2022/12/31 01:20:37;;;;;;;59.00;29.73;;;;;;;;;;6277844;28;20321;-74
2022/12/31 01:23:39;;;;;;;52.08;29.10;;;;;;;;;;6281707;28;20056;-75
2022/12/31 01:26:41;;;;;;;49.88;28.30;;;;;;;;;;6256943;28;20210;-74
2022/12/31 01:29:44;;;;;;;47.53;27.80;;;;;;;;;;6251959;28;20052;-72
2022/12/31 01:32:46;;;;;;;49.50;27.92;;;;;;;;;;6253110;28;20061;-74
2022/12/31 01:35:47;;;;;;;51.20;28.45;;;;;;;;;;6255161;28;20049;-75
2022/12/31 01:38:49;;;;;;;51.17;29.58;;;;;;;;;;6272721;28;20291;-75
2022/12/31 01:41:51;;;;;;;52.90;28.42;;;;;;;;;;6279527;28;20222;-70
2022/12/31 01:44:55;;;;;;;47.38;27.88;;;;;;;;;;6280525;28;20137;-75
2022/12/31 01:47:58;;;;;;;54.58;29.02;;;;;;;;;;6278944;28;20053;-75
2022/12/31 01:51:00;;;;;;;49.03;28.05;;;;;;;;;;6276881;28;20091;-75
2022/12/31 01:54:04;;;;;;;52.55;28.58;;;;;;;;;;6279748;28;20108;-73
2022/12/31 01:57:06;;;;;;;51.28;28.20;;;;;;;;;;6280262;28;20086;-74
2022/12/31 02:00:10;;;;;;;49.45;28.33;;;;;;;;;;6265551;28;20100;-74
2022/12/31 02:03:12;;;;;;;53.35;29.48;;;;;;;;;;6254188;28;20053;-74
2022/12/31 02:06:18;;;;;;;53.63;28.70;;;;;;;;;;6251976;28;20053;-74
2022/12/31 02:09:20;;;;;;;49.55;27.23;;;;;;;;;;6274371;28;20427;-74
2022/12/31 02:12:21;;;;;;;48.10;27.83;;;;;;;;;;6274607;28;20094;-74
2022/12/31 02:15:31;;;;;;;49.95;28.63;;;;;;;;;;6275791;28;20044;-75
2022/12/31 02:18:38;;;;;;;53.30;29.35;;;;;;;;;;6279335;28;20048;-75
2022/12/31 02:21:47;;;;;;;51.35;28.13;;;;;;;;;;6275343;28;20045;-75
2022/12/31 02:25:02;;;;;;;54.88;28.92;;;;;;;;;;6275213;28;20049;-74
2022/12/31 02:28:16;;;;;;;52.65;29.50;;;;;;;;;;6272695;28;20045;-75
2022/12/31 02:31:24;;;;;;;52.13;29.13;;;;;;;;;;6275620;28;20225;-75
2022/12/31 02:34:28;;;;;;;44.65;26.00;;;;;;;;;;6277779;28;20056;-75
2022/12/31 02:37:30;;;;;;;50.75;28.13;;;;;;;;;;6278699;28;20196;-73
2022/12/31 02:40:34;;;;;;;45.10;26.45;;;;;;;;;;6275564;28;20052;-75
2022/12/31 02:43:36;;;;;;;47.22;26.63;;;;;;;;;;6271694;28;20060;-75
2022/12/31 02:46:44;;;;;;;47.20;26.38;;;;;;;;;;6276715;28;20788;-73
2022/12/31 02:49:57;;;;;;;44.67;26.25;;;;;;;;;;6276026;28;20070;-73
2022/12/31 02:53:07;;;;;;;49.30;25.98;;;;;;;;;;6273355;28;20045;-72
2022/12/31 02:56:13;;;;;;;44.47;25.63;;;;;;;;;;6272566;28;20068;-72
2022/12/31 03:02:44;;;;;;;43.53;25.55;;;;;;;;;;6276846;28;20127;-75
2022/12/31 03:05:46;;;;;;;48.55;26.17;;;;;;;;;;6276210;28;20065;-74
2022/12/31 03:15:32;;;;;;;42.25;24.52;;;;;;;;;;6271573;28;20061;-75
2022/12/31 03:28:31;;;;;;;42.10;25.73;;;;;;;;;;6272134;28;20041;-76
2022/12/31 03:31:33;;;;;;;43.00;24.98;;;;;;;;;;6279843;28;20053;-76
2022/12/31 03:34:36;;;;;;;45.35;25.55;;;;;;;;;;6280039;28;20045;-74
2022/12/31 03:37:38;;;;;;;46.08;25.95;;;;;;;;;;6277588;28;20055;-75
2022/12/31 03:40:42;;;;;;;47.28;26.05;;;;;;;;;;6275802;28;20307;-74
2022/12/31 03:43:43;;;;;;;44.92;25.60;;;;;;;;;;6276398;28;20106;-76
2022/12/31 03:46:45;;;;;;;49.28;26.52;;;;;;;;;;6273891;28;20045;-76
2022/12/31 03:49:48;;;;;;;47.95;25.90;;;;;;;;;;6273172;28;20053;-75
2022/12/31 03:52:50;;;;;;;43.85;26.13;;;;;;;;;;6280255;28;20053;-76
2022/12/31 03:55:52;;;;;;;48.53;26.00;;;;;;;;;;6274287;28;20056;-73
2022/12/31 03:58:53;;;;;;;48.40;25.98;;;;;;;;;;6276071;28;20049;-75
2022/12/31 04:01:55;;;;;;;46.20;26.27;;;;;;;;;;6274219;28;20056;-74
2022/12/31 04:04:58;;;;;;;43.55;25.30;;;;;;;;;;6273513;28;20060;-76
2022/12/31 04:08:01;;;;;;;46.65;25.73;;;;;;;;;;6275224;28;20053;-76
2022/12/31 04:11:03;;;;;;;43.38;25.38;;;;;;;;;;6274769;28;20041;-76
2022/12/31 04:14:05;;;;;;;44.15;26.17;;;;;;;;;;6273644;28;20061;-76
2022/12/31 04:17:07;;;;;;;43.10;25.15;;;;;;;;;;6272571;28;20041;-73
2022/12/31 04:20:11;;;;;;;46.05;25.98;;;;;;;;;;6273663;28;20393;-76
2022/12/31 04:23:12;;;;;;;44.00;25.90;;;;;;;;;;6274955;28;20041;-75
2022/12/31 04:26:14;;;;;;;43.03;26.35;;;;;;;;;;6274215;28;20049;-75
2022/12/31 04:29:16;;;;;;;45.95;26.05;;;;;;;;;;6275687;28;20225;-76
2022/12/31 04:32:17;;;;;;;44.05;25.58;;;;;;;;;;6272446;28;20053;-76
2022/12/31 04:35:20;;;;;;;48.00;27.05;;;;;;;;;;6276957;28;20221;-76
2022/12/31 04:38:22;;;;;;;45.72;26.30;;;;;;;;;;6281617;28;20099;-75
2022/12/31 04:41:25;;;;;;;47.58;27.95;;;;;;;;;;6277051;28;20055;-75
2022/12/31 04:44:27;;;;;;;49.42;26.83;;;;;;;;;;6277984;28;20056;-75
2022/12/31 04:47:29;;;;;;;43.42;26.48;;;;;;;;;;6280698;28;20052;-75
2022/12/31 04:50:32;;;;;;;45.40;26.90;;;;;;;;;;6277801;28;20045;-75
2022/12/31 04:53:33;;;;;;;47.63;27.02;;;;;;;;;;6278759;28;20090;-76
2022/12/31 04:56:35;;;;;;;46.70;26.52;;;;;;;;;;6280596;28;20057;-76
2022/12/31 04:59:37;;;;;;;47.35;26.40;;;;;;;;;;6279386;28;20112;-76
2022/12/31 05:02:39;;;;;;;44.08;26.40;;;;;;;;;;6276203;28;20045;-75
2022/12/31 05:05:43;;;;;;;46.85;25.92;;;;;;;;;;6279223;28;20056;-75
2022/12/31 05:08:45;;;;;;;46.33;25.92;;;;;;;;;;6277173;28;20068;-75
2022/12/31 05:11:46;;;;;;;43.42;24.85;;;;;;;;;;6280662;28;20090;-75
2022/12/31 05:14:48;;;;;;;45.63;24.65;;;;;;;;;;6273911;28;20846;-75
2022/12/31 05:17:50;;;;;;;46.17;25.17;;;;;;;;;;6278590;28;20051;-75
2022/12/31 05:20:53;;;;;;;43.30;25.27;;;;;;;;;;6278254;28;20049;-74
2022/12/31 05:23:55;;;;;;;47.47;24.55;;;;;;;;;;6279356;28;20106;-75
2022/12/31 05:26:57;;;;;;;46.83;25.38;;;;;;;;;;6277539;28;20061;-76
2022/12/31 05:29:59;;;;;;;41.78;25.13;;;;;;;;;;6278285;28;20128;-75
2022/12/31 05:33:00;;;;;;;44.03;23.83;;;;;;;;;;6276750;28;20044;-76
2022/12/31 05:36:04;;;;;;;46.65;24.60;;;;;;;;;;6279592;28;20048;-73
2022/12/31 05:39:06;;;;;;;38.72;23.40;;;;;;;;;;6277588;28;20049;-75
2022/12/31 05:42:07;;;;;;;44.00;24.45;;;;;;;;;;6278152;28;20060;-76
2022/12/31 05:45:12;;;;;;;42.83;23.52;;;;;;;;;;6275948;28;20048;-72
2022/12/31 05:48:13;;;;;;;41.03;24.25;;;;;;;;;;6277776;28;20320;-75
2022/12/31 05:51:16;;;;;;;40.13;23.90;;;;;;;;;;6279225;28;20220;-75
2022/12/31 05:54:18;;;;;;;39.88;23.65;;;;;;;;;;6280502;28;20057;-72
2022/12/31 05:57:20;;;;;;;45.88;23.98;;;;;;;;;;6280545;28;20051;-75
2022/12/31 06:00:22;;;;;;;45.65;25.85;;;;;;;;;;6276332;28;20359;-75
2022/12/31 06:03:23;;;;;;;41.60;23.35;;;;;;;;;;6277189;28;20057;-76
2022/12/31 06:06:26;;;;;;;39.90;23.92;;;;;;;;;;6280458;28;20210;-75
2022/12/31 06:09:28;;;;;;;39.35;24.25;;;;;;;;;;6276192;28;20049;-75
2022/12/31 06:12:30;;;;;;;40.40;23.58;;;;;;;;;;6275207;28;20071;-74
2022/12/31 06:15:31;;;;;;;41.08;23.67;;;;;;;;;;6274453;28;20390;-74
2022/12/31 06:18:33;;;;;;;41.10;23.13;;;;;;;;;;6271878;28;20044;-73
2022/12/31 06:21:36;;;;;;;34.78;22.05;;;;;;;;;;6276965;28;20063;-74
2022/12/31 06:24:38;;;;;;;39.33;23.30;;;;;;;;;;6278469;28;20049;-74
2022/12/31 06:27:39;;;;;;;38.03;23.23;;;;;;;;;;6276289;28;20045;-74
2022/12/31 06:30:41;;;;;;;39.38;23.00;;;;;;;;;;6277209;28;20340;-74
2022/12/31 06:33:42;;;;;;;39.35;22.17;;;;;;;;;;6277620;28;20067;-74
2022/12/31 06:36:46;;;;;;;36.65;21.73;;;;;;;;;;6276235;28;20394;-73
2022/12/31 06:39:47;;;;;;;35.17;22.33;;;;;;;;;;6277759;28;20051;-73
2022/12/31 06:42:49;;;;;;;37.60;21.75;;;;;;;;;;6277760;28;20095;-74
2022/12/31 06:45:51;;;;;;;38.25;22.20;;;;;;;;;;6276022;28;20049;-74
2022/12/31 06:48:52;;;;;;;39.28;23.13;;;;;;;;;;6276196;28;20045;-73
2022/12/31 06:51:55;;;;;;;34.70;20.90;;;;;;;;;;6280705;28;20053;-74
2022/12/31 06:54:57;;;;;;;34.17;21.33;;;;;;;;;;6271920;28;20047;-73
2022/12/31 06:58:00;;;;;;;38.55;21.95;;;;;;;;;;6275121;28;20061;-74
2022/12/31 07:01:06;;;;;;;38.85;21.98;;;;;;;;;;6270551;28;20167;-74
2022/12/31 07:04:42;;;;;;;37.63;21.15;;;;;;;;;;6274466;28;20068;-74
2022/12/31 07:07:55;;;;;;;33.95;20.23;;;;;;;;;;6194865;28;20490;-73
2022/12/31 07:11:02;;;;;;;38.15;20.42;;;;;;;;;;6179365;28;20054;-75
2022/12/31 07:14:11;;;;;;;43.17;23.02;;;;;;;;;;6183297;28;20061;-73
2022/12/31 07:17:19;;;;;;;34.55;21.58;;;;;;;;;;6169455;28;20254;-75
2022/12/31 07:20:21;;;;;;;32.72;19.75;;;;;;;;;;6171656;28;20054;-75
2022/12/31 07:23:25;;;;;;;34.13;20.50;;;;;;;;;;6171664;28;20101;-75
2022/12/31 07:26:35;;;;;;;32.67;20.63;;;;;;;;;;6166761;28;20960;-73
2022/12/31 07:29:45;;;;;;;33.15;19.77;;;;;;;;;;6171858;28;20266;-75
2022/12/31 07:33:11;;;;;;;31.98;18.83;;;;;;;;;;6190273;28;20057;-75
2022/12/31 07:36:22;;;;;;;31.27;18.58;;;;;;;;;;6195201;28;20397;-76
2022/12/31 07:39:28;;;;;;;32.78;18.90;;;;;;;;;;6191942;28;20384;-74
2022/12/31 07:42:36;;;;;;;31.10;19.75;;;;;;;;;;6207723;28;20045;-76
2022/12/31 07:45:42;;;;;;;33.38;19.58;;;;;;;;;;6273315;28;20037;-76
2022/12/31 07:48:44;;;;;;;32.47;19.02;;;;;;;;;;6275168;28;20059;-74
2022/12/31 07:51:46;;;;;;;35.47;20.25;;;;;;;;;;6277028;28;20098;-76
2022/12/31 07:54:49;;;;;;;35.22;20.52;;;;;;;;;;6275020;28;20056;-77
2022/12/31 07:57:57;;;;;;;34.03;19.85;;;;;;;;;;6271100;28;20115;-74
2022/12/31 08:01:00;;;;;;;32.80;20.88;;;;;;;;;;6277377;28;20090;-75
2022/12/31 08:04:07;;;;;;;36.38;20.83;;;;;;;;;;6275535;28;21253;-73
2022/12/31 08:07:18;;;;;;;33.70;20.88;;;;;;;;;;6275384;28;20045;-69
2022/12/31 08:10:26;;;;;;;36.67;21.45;;;;;;;;;;6276533;28;20329;-78
2022/12/31 08:13:28;;;;;;;35.13;20.92;;;;;;;;;;6281711;28;20077;-77
2022/12/31 08:16:30;;;;;;;37.08;21.77;;;;;;;;;;6280933;28;20045;-76
2022/12/31 08:19:33;;;;;;;35.60;20.83;;;;;;;;;;6278345;28;20052;-76
2022/12/31 08:22:45;;;;;;;34.92;20.40;;;;;;;;;;6281193;28;20263;-76
2022/12/31 08:26:01;;;;;;;38.33;20.88;;;;;;;;;;6276500;28;20340;-72
2022/12/31 08:29:13;;;;;;;37.35;21.48;;;;;;;;;;6279418;28;20321;-74
2022/12/31 08:32:20;;;;;;;31.98;20.65;;;;;;;;;;6277024;28;20047;-76
2022/12/31 08:35:31;;;;;;;34.05;20.17;;;;;;;;;;6276145;28;20048;-76
2022/12/31 08:38:37;;;;;;;33.55;19.85;;;;;;;;;;6281412;28;20077;-76
2022/12/31 08:41:43;;;;;;;31.10;20.63;;;;;;;;;;6280586;28;20237;-75
2022/12/31 08:44:51;;;;;;;31.00;19.92;;;;;;;;;;6275859;28;20064;-70
2022/12/31 08:47:58;;;;;;;35.42;20.52;;;;;;;;;;6285518;28;20103;-75
2022/12/31 08:51:00;;;;;;;33.42;20.80;;;;;;;;;;6282137;28;20052;-75
2022/12/31 08:54:03;;;;;;;31.98;19.83;;;;;;;;;;6281321;28;20049;-75
2022/12/31 08:57:13;;;;;;;32.85;19.85;;;;;;;;;;6278738;28;20396;-75
2022/12/31 09:00:17;;;;;;;35.15;20.85;;;;;;;;;;6277845;28;20049;-73
2022/12/31 09:03:28;;;;;;;35.63;21.08;;;;;;;;;;6276405;28;20275;-75
2022/12/31 09:06:32;;;;;;;33.90;20.58;;;;;;;;;;6278791;28;20194;-75
2022/12/31 09:09:40;;;;;;;31.90;20.08;;;;;;;;;;6277330;28;20045;-75
2022/12/31 09:12:50;;;;;;;32.90;19.23;;;;;;;;;;6278684;28;20294;-75
2022/12/31 09:15:59;;;;;;;32.15;20.20;;;;;;;;;;6278383;28;20394;-73
2022/12/31 09:19:00;;;;;;;33.08;19.35;;;;;;;;;;6276303;28;20067;-73
2022/12/31 09:22:03;;;;;;;27.10;18.90;;;;;;;;;;6276734;28;20352;-72
2022/12/31 09:25:05;;;;;;;31.33;19.52;;;;;;;;;;6276006;28;20048;-74
2022/12/31 09:28:14;;;;;;;27.95;17.45;;;;;;;;;;6279753;28;20344;-73
2022/12/31 09:31:18;;;;;;;28.27;18.60;;;;;;;;;;6278272;28;20051;-72
2022/12/31 09:34:25;;;;;;;28.35;18.30;;;;;;;;;;6279673;28;20256;-73
2022/12/31 09:37:36;;;;;;;28.70;18.52;;;;;;;;;;6278996;28;20095;-73
2022/12/31 09:40:51;;;;;;;31.02;19.35;;;;;;;;;;6278971;28;20320;-72
2022/12/31 09:44:03;;;;;;;;;;;;;;;;;;6279838;28;20053;-72
2022/12/31 09:47:25;;;;;;;31.48;19.02;;;;;;;;;;6277798;28;19924;-72
2022/12/31 09:50:38;;;;;;;34.65;19.70;;;;;;;;;;6280033;28;20333;-72
2022/12/31 09:53:47;;;;;;;27.52;18.60;;;;;;;;;;6280403;28;20052;-72
2022/12/31 09:57:01;;;;;;;29.23;19.45;;;;;;;;;;6280762;28;20056;-72
2022/12/31 10:00:09;;;;;;;30.73;20.25;;;;;;;;;;6280153;28;20257;-72
2022/12/31 10:03:21;;;;;;;33.33;21.08;;;;;;;;;;6280139;28;20059;-71
2022/12/31 10:06:24;;;;;;;30.08;20.17;;;;;;;;;;6278888;28;20053;-72
2022/12/31 10:09:46;;;;;;;32.65;21.27;;;;;;;;;;6277257;28;20049;-72
2022/12/31 10:13:15;;;;;;;30.90;19.48;;;;;;;;;;6278323;28;20086;-70
2022/12/31 10:16:32;;;;;;;28.65;18.50;;;;;;;;;;6275362;28;20045;-72
2022/12/31 10:19:51;;;;;;;28.33;18.10;;;;;;;;;;6278390;28;20053;-72
2022/12/31 10:23:04;;;;;;;29.98;19.63;;;;;;;;;;6277866;28;20049;-71
2022/12/31 10:26:39;;;;;;;32.47;19.23;;;;;;;;;;6277602;28;20049;-72
2022/12/31 10:29:46;;;;;;;36.08;19.98;;;;;;;;;;6220340;28;20095;-72
2022/12/31 10:33:02;;;;;;;31.42;19.45;;;;;;;;;;6219613;28;20069;-71
2022/12/31 10:36:09;;;;;;;35.58;22.05;;;;;;;;;;6221828;28;20094;-72
2022/12/31 10:39:18;;;;;;;30.42;19.33;;;;;;;;;;6217432;28;20092;-70
2022/12/31 10:43:03;;;;;;;30.38;19.75;;;;;;;;;;6218048;28;20139;-74
2022/12/31 10:46:36;;;;;;;21.92;14.80;;;;;;;;;;6220110;28;20057;-75
2022/12/31 10:50:10;;;;;;;30.02;19.75;;;;;;;;;;6207665;28;20061;-72
2022/12/31 10:53:41;;;;;;;31.98;20.33;;;;;;;;;;6218605;28;20053;-74
2022/12/31 10:56:59;;;;;;;33.15;20.40;;;;;;;;;;6222278;28;20096;-76
2022/12/31 11:00:14;;;;;;;29.65;19.08;;;;;;;;;;6221779;28;20250;-74
2022/12/31 11:04:07;;;;;;;33.58;20.33;;;;;;;;;;6218564;28;20048;-83
2022/12/31 11:07:30;;;;;;;35.88;20.13;;;;;;;;;;6160645;28;20043;-76
2022/12/31 11:11:01;;;;;;;29.98;20.63;;;;;;;;;;6167412;28;20059;-76
2022/12/31 11:14:28;;;;;;;31.88;21.20;;;;;;;;;;6147288;28;20093;-76
2022/12/31 11:17:41;;;;;;;31.08;21.23;;;;;;;;;;6140985;28;20255;-75
2022/12/31 11:21:05;;;;;;;31.83;21.33;;;;;;;;;;6143554;28;20051;-73
2022/12/31 11:24:18;;;;;;;34.03;21.25;;;;;;;;;;6144274;28;20059;-76
2022/12/31 11:27:42;;;;;;;32.75;21.58;;;;;;;;;;6143211;28;20099;-77
2022/12/31 11:30:54;;;;;;;31.92;20.13;;;;;;;;;;6143601;28;20071;-76
2022/12/31 11:34:09;;;;;;;31.75;21.42;;;;;;;;;;6143717;28;20055;-76
2022/12/31 11:37:28;;;;;;;31.65;21.55;;;;;;;;;;6184851;28;20095;-72
2022/12/31 11:40:53;;;;;;;34.45;23.25;;;;;;;;;;6252995;28;20100;-76
2022/12/31 11:43:55;;;;;;;;;;;;;;;;;;6274043;28;20316;-78
2022/12/31 11:47:08;;;;;;;30.13;20.55;;;;;;;;;;6274115;28;19959;-73
2022/12/31 11:50:26;;;;;;;31.77;20.98;;;;;;;;;;6274316;28;21516;-74
2022/12/31 11:54:03;;;;;;;29.10;20.17;;;;;;;;;;6276972;28;20257;-77
2022/12/31 11:57:16;;;;;;;33.00;20.20;;;;;;;;;;6277385;28;20108;-75
2022/12/31 12:00:20;;;;;;;28.23;20.98;;;;;;;;;;6274137;28;20045;-75
2022/12/31 12:03:23;;;;;;;31.30;21.50;;;;;;;;;;6278687;28;20098;-74
2022/12/31 12:06:28;;;;;;;30.48;21.30;;;;;;;;;;6279806;28;20336;-76
2022/12/31 12:09:31;;;;;;;29.70;21.33;;;;;;;;;;6279276;28;20240;-77
2022/12/31 12:12:40;;;;;;;35.57;21.70;;;;;;;;;;6276216;28;20064;-75
2022/12/31 12:15:44;;;;;;;30.00;20.77;;;;;;;;;;6276977;28;20049;-74
2022/12/31 12:18:50;;;;;;;31.15;20.83;;;;;;;;;;6278369;28;20106;-70
2022/12/31 12:21:51;;;;;;;30.27;19.83;;;;;;;;;;6278051;28;20052;-74
2022/12/31 12:24:54;;;;;;;29.65;20.17;;;;;;;;;;6274757;28;20095;-73
2022/12/31 12:27:57;;;;;;;28.85;20.70;;;;;;;;;;6274656;28;20119;-73
2022/12/31 12:31:01;;;;;;;29.92;19.85;;;;;;;;;;6276178;28;20052;-75
2022/12/31 12:34:04;;;;;;;27.02;19.17;;;;;;;;;;6274842;28;20049;-73
2022/12/31 12:37:16;;;;;;;27.77;19.92;;;;;;;;;;6275860;28;20057;-74
2022/12/31 12:40:21;;;;;;;28.05;19.75;;;;;;;;;;6273289;28;20070;-72
2022/12/31 12:43:26;;;;;;;30.30;20.77;;;;;;;;;;6275671;28;20041;-77
2022/12/31 12:46:32;;;;;;;29.90;19.63;;;;;;;;;;6281636;28;20108;-77
2022/12/31 12:49:39;;;;;;;27.92;19.35;;;;;;;;;;6281606;28;20047;-77
2022/12/31 12:53:06;;;;;;;28.58;19.48;;;;;;;;;;6278788;28;20052;-77
2022/12/31 12:56:13;;;;;;;30.95;20.52;;;;;;;;;;6280697;28;20053;-75
2022/12/31 12:59:54;;;;;;;32.20;21.00;;;;;;;;;;6284406;28;20045;-77
2022/12/31 13:03:28;;;;;;;29.80;20.50;;;;;;;;;;6265341;28;20065;-77
2022/12/31 13:06:36;;;;;;;30.40;20.87;;;;;;;;;;6279114;28;20163;-78
2022/12/31 13:09:52;;;;;;;33.60;21.73;;;;;;;;;;6287609;28;20047;-77
2022/12/31 13:13:01;;;;;;;31.95;20.85;;;;;;;;;;6285316;28;20067;-79
2022/12/31 13:16:08;;;;;;;33.60;22.27;;;;;;;;;;6276446;28;20049;-78
2022/12/31 13:19:16;;;;;;;30.80;22.65;;;;;;;;;;6280679;28;20060;-78
2022/12/31 13:22:20;;;;;;;33.20;21.60;;;;;;;;;;6279871;28;20061;-78
2022/12/31 13:25:27;;;;;;;33.85;21.90;;;;;;;;;;6282505;28;20045;-78
2022/12/31 13:28:30;;;;;;;27.92;20.02;;;;;;;;;;6278460;28;20087;-77
2022/12/31 13:31:34;;;;;;;28.63;19.83;;;;;;;;;;6282728;28;20052;-75
2022/12/31 13:34:39;;;;;;;28.40;20.73;;;;;;;;;;6280046;28;20379;-76
2022/12/31 13:37:42;;;;;;;29.90;20.08;;;;;;;;;;6279027;28;20122;-77
2022/12/31 13:40:47;;;;;;;29.35;21.00;;;;;;;;;;6279895;28;20344;-77
2022/12/31 13:43:54;;;;;;;29.98;20.80;;;;;;;;;;6282246;28;20055;-71
2022/12/31 13:47:01;;;;;;;27.80;20.40;;;;;;;;;;6284069;28;20060;-76
2022/12/31 13:50:07;;;;;;;28.73;19.38;;;;;;;;;;6279526;28;20074;-76
2022/12/31 13:53:15;;;;;;;28.17;19.95;;;;;;;;;;6278089;28;20052;-75
2022/12/31 13:56:22;;;;;;;27.52;19.13;;;;;;;;;;6279164;28;20045;-76
2022/12/31 13:59:28;;;;;;;33.85;21.95;;;;;;;;;;6276119;28;20055;-75
2022/12/31 14:02:35;;;;;;;29.33;21.50;;;;;;;;;;6278498;28;20045;-76
2022/12/31 14:05:41;;;;;;;29.10;20.23;;;;;;;;;;6277058;28;20981;-76
2022/12/31 14:08:43;;;;;;;30.17;20.67;;;;;;;;;;6277515;28;20052;-76
2022/12/31 14:11:54;;;;;;;33.03;21.73;;;;;;;;;;6278305;28;20048;-75
2022/12/31 14:15:03;;;;;;;32.53;21.20;;;;;;;;;;6277587;28;20102;-76
2022/12/31 14:18:12;;;;;;;31.27;21.40;;;;;;;;;;6276007;28;20056;-75
2022/12/31 14:21:18;;;;;;;33.47;22.35;;;;;;;;;;6277130;28;20240;-71
2022/12/31 14:24:31;;;;;;;36.10;22.85;;;;;;;;;;6279572;28;20052;-77
2022/12/31 14:27:36;;;;;;;33.10;21.25;;;;;;;;;;6277910;28;20053;-76
2022/12/31 14:30:39;;;;;;;33.33;22.50;;;;;;;;;;6276485;28;21188;-76
2022/12/31 14:33:50;;;;;;;23.57;15.77;;;;;;;;;;6279998;28;20130;-77
2022/12/31 14:36:57;;;;;;;28.90;20.35;;;;;;;;;;6281170;28;20057;-75
2022/12/31 14:40:10;;;;;;;29.77;20.45;;;;;;;;;;6280371;28;20048;-77
2022/12/31 14:43:19;;;;;;;31.73;22.00;;;;;;;;;;6276863;28;20132;-77
2022/12/31 14:46:25;;;;;;;33.95;22.15;;;;;;;;;;6276721;28;20283;-77
2022/12/31 14:49:38;;;;;;;36.70;22.50;;;;;;;;;;6275554;28;20078;-70
2022/12/31 14:52:51;;;;;;;33.20;21.75;;;;;;;;;;6277274;28;20091;-77
2022/12/31 14:56:01;;;;;;;34.15;21.17;;;;;;;;;;6275432;28;20048;-77
2022/12/31 14:59:03;;;;;;;30.30;20.10;;;;;;;;;;6277427;28;20048;-76
2022/12/31 15:02:25;;;;;;;30.13;19.75;;;;;;;;;;6278097;28;20059;-73
2022/12/31 15:05:29;;;;;;;25.98;18.80;;;;;;;;;;6276347;28;20260;-76
2022/12/31 15:08:40;;;;;;;27.90;19.42;;;;;;;;;;6277310;28;20045;-77
2022/12/31 15:12:02;;;;;;;28.30;19.73;;;;;;;;;;6276994;28;20060;-76
2022/12/31 15:15:15;;;;;;;31.00;20.50;;;;;;;;;;6276674;28;20045;-77
2022/12/31 15:18:29;;;;;;;29.65;19.73;;;;;;;;;;6275016;28;20131;-77
2022/12/31 15:21:41;;;;;;;28.55;19.40;;;;;;;;;;6274997;28;20045;-76
2022/12/31 15:24:43;;;;;;;30.95;19.77;;;;;;;;;;6276453;28;20124;-77
2022/12/31 15:27:46;;;;;;;27.33;19.08;;;;;;;;;;6276637;28;20360;-77
2022/12/31 15:30:48;;;;;;;28.75;19.38;;;;;;;;;;6278347;28;20325;-77
2022/12/31 15:33:56;;;;;;;26.27;17.88;;;;;;;;;;6279578;28;20093;-77
2022/12/31 15:37:01;;;;;;;27.73;19.00;;;;;;;;;;6274860;28;20098;-77
2022/12/31 15:40:17;;;;;;;32.13;19.48;;;;;;;;;;6278756;28;20049;-77
2022/12/31 15:43:29;;;;;;;27.08;18.73;;;;;;;;;;6276559;28;20225;-71
2022/12/31 15:46:33;;;;;;;27.48;18.52;;;;;;;;;;6278071;28;20091;-77
2022/12/31 15:49:38;;;;;;;27.83;18.02;;;;;;;;;;6253125;28;20304;-77
2022/12/31 15:52:43;;;;;;;25.42;17.70;;;;;;;;;;6247692;28;20349;-77
2022/12/31 15:55:48;;;;;;;26.30;19.17;;;;;;;;;;6245105;28;20041;-76
2022/12/31 15:58:53;;;;;;;27.50;19.33;;;;;;;;;;6252668;28;20112;-77
2022/12/31 16:01:56;;;;;;;26.08;17.58;;;;;;;;;;6276479;28;20051;-76
2022/12/31 16:04:57;;;;;;;30.60;18.90;;;;;;;;;;6275488;28;20052;-77
2022/12/31 16:08:00;;;;;;;24.38;17.23;;;;;;;;;;6275139;28;20060;-77
2022/12/31 16:11:04;;;;;;;30.30;17.50;;;;;;;;;;6274359;28;20049;-77
2022/12/31 16:14:06;;;;;;;25.87;18.13;;;;;;;;;;6275429;28;20505;-77
2022/12/31 16:17:24;;;;;;;28.20;20.17;;;;;;;;;;6275546;28;20343;-76
2022/12/31 16:20:29;;;;;;;29.02;18.70;;;;;;;;;;6276360;28;20106;-71
2022/12/31 16:23:32;;;;;;;36.50;24.27;;;;;;;;;;6275459;28;20083;-76
2022/12/31 16:26:38;;;;;;;35.13;23.77;;;;;;;;;;6277891;28;20069;-77
2022/12/31 16:29:44;;;;;;;38.00;25.52;;;;;;;;;;6276625;28;20079;-76
2022/12/31 16:32:47;;;;;;;38.38;25.92;;;;;;;;;;6278935;28;20064;-77
2022/12/31 16:35:55;;;;;;;41.72;25.83;;;;;;;;;;6278913;28;20390;-76
2022/12/31 16:39:21;;;;;;;40.08;27.48;;;;;;;;;;6283596;28;20060;-77
2022/12/31 16:42:24;;;;;;;42.67;28.05;;;;;;;;;;6281070;28;20053;-77
2022/12/31 16:45:31;;;;;;;44.60;27.88;;;;;;;;;;6279339;28;20041;-77
2022/12/31 16:48:33;;;;;;;41.22;28.95;;;;;;;;;;6278780;28;20056;-76
2022/12/31 16:51:37;;;;;;;40.63;25.90;;;;;;;;;;6280819;28;20053;-74
2022/12/31 16:54:40;;;;;;;;;;;;;;;;;;6278738;28;20147;-77
2022/12/31 16:57:43;;;;;;;41.67;25.63;;;;;;;;;;6280115;28;19982;-75
2022/12/31 17:00:45;;;;;;;41.38;24.30;;;;;;;;;;6278352;28;20091;-73
2022/12/31 17:03:49;;;;;;;41.53;25.80;;;;;;;;;;6279171;28;20057;-77
2022/12/31 17:06:50;;;;;;;;;;;;;;;;;;6279963;28;20347;-76
2022/12/31 17:10:09;;;;;;;41.22;22.92;;;;;;;;;;6279440;28;20098;-77
2022/12/31 17:13:22;;;;;;;37.55;22.85;;;;;;;;;;6278933;28;20060;-75
2022/12/31 17:16:25;;;;;;;36.35;23.08;;;;;;;;;;6279647;28;20116;-77
2022/12/31 17:19:35;;;;;;;37.15;22.08;;;;;;;;;;6278850;28;20045;-76
2022/12/31 17:22:42;;;;;;;35.78;22.83;;;;;;;;;;6277379;28;20248;-77
2022/12/31 17:25:45;;;;;;;34.75;23.63;;;;;;;;;;6278066;28;20057;-76
2022/12/31 17:28:48;;;;;;;35.17;23.95;;;;;;;;;;6276780;28;20053;-77
2022/12/31 17:31:59;;;;;;;38.03;24.30;;;;;;;;;;6278440;28;20260;-75
2022/12/31 17:35:01;;;;;;;37.55;22.90;;;;;;;;;;6278782;28;20045;-77
2022/12/31 17:38:29;;;;;;;37.60;24.73;;;;;;;;;;6280361;28;20091;-77
2022/12/31 17:41:32;;;;;;;46.47;26.92;;;;;;;;;;6277108;28;20243;-77
2022/12/31 17:44:35;;;;;;;44.70;28.05;;;;;;;;;;6279454;28;20068;-76
2022/12/31 17:47:38;;;;;;;44.17;29.70;;;;;;;;;;6279206;28;20040;-77
2022/12/31 17:50:46;;;;;;;44.90;29.02;;;;;;;;;;6278682;28;20482;-77
2022/12/31 17:53:48;;;;;;;50.35;29.45;;;;;;;;;;6280198;28;20098;-76
2022/12/31 17:56:52;;;;;;;47.95;29.85;;;;;;;;;;6280270;28;20045;-76
2022/12/31 17:59:53;;;;;;;50.20;30.90;;;;;;;;;;6279731;28;20052;-77
2022/12/31 18:02:55;;;;;;;49.08;30.92;;;;;;;;;;6277545;28;20053;-76
2022/12/31 18:05:57;;;;;;;48.28;30.48;;;;;;;;;;6275786;28;20041;-77
2022/12/31 18:08:58;;;;;;;58.63;34.13;;;;;;;;;;6278557;28;20315;-77
2022/12/31 18:12:03;;;;;;;46.15;30.65;;;;;;;;;;6278116;28;20098;-77
2022/12/31 18:15:05;;;;;;;;;;;;;;;;;;6278305;28;20271;-77
2022/12/31 18:18:16;;;;;;;55.05;30.20;;;;;;;;;;6278625;28;19917;-77
2022/12/31 18:21:22;;;;;;;47.13;30.33;;;;;;;;;;6278643;28;20052;-77
2022/12/31 18:24:24;;;;;;;54.33;32.47;;;;;;;;;;6278773;28;20049;-76
2022/12/31 18:27:29;;;;;;;46.33;30.40;;;;;;;;;;6277643;28;20630;-77
2022/12/31 18:30:31;;;;;;;48.95;29.95;;;;;;;;;;6276490;28;20150;-77